createdAt,value
2022-11-24T00:05:08.172Z,10.15
2022-11-24T00:10:25.624Z,15.25
2022-11-24T00:15:43.016Z,12.85
2022-11-24T00:21:00.500Z,12.80
2022-11-24T00:26:20.256Z,13.55
2022-11-24T00:31:41.629Z,16.80
2022-11-24T00:36:59.190Z,10.35
2022-11-24T00:42:17.230Z,10.45
2022-11-24T00:47:34.673Z,14.23
2022-11-24T00:52:52.109Z,16.40
2022-11-24T00:58:09.508Z,14.13
2022-11-24T01:03:26.953Z,13.32
2022-11-24T01:08:44.863Z,16.42
2022-11-24T01:14:02.280Z,14.20
2022-11-24T01:19:20.076Z,14.15
2022-11-24T01:24:37.494Z,16.85
2022-11-24T01:29:54.908Z,16.80
2022-11-24T01:35:12.343Z,19.13
2022-11-24T01:40:30.204Z,14.95
2022-11-24T01:45:48.472Z,12.23
2022-11-24T01:51:13.193Z,14.02
2022-11-24T01:56:32.886Z,11.57
2022-11-24T02:01:53.119Z,13.27
2022-11-24T02:07:12.843Z,14.68
2022-11-24T02:12:30.844Z,11.75
2022-11-24T02:17:48.243Z,15.90
2022-11-24T02:23:17.397Z,12.30
2022-11-24T02:28:34.886Z,12.40
2022-11-24T02:33:52.396Z,21.33
2022-11-24T02:39:14.167Z,12.60
2022-11-24T02:44:38.100Z,11.35
2022-11-24T02:49:55.527Z,13.40
2022-11-24T02:55:12.942Z,8.77
2022-11-24T03:00:30.343Z,10.75
2022-11-24T03:05:47.823Z,14.35
2022-11-24T03:11:05.350Z,17.45
2022-11-24T03:16:22.961Z,13.80
2022-11-24T03:21:40.553Z,13.63
2022-11-24T03:26:57.895Z,14.48
2022-11-24T03:32:15.329Z,13.48
2022-11-24T03:37:32.787Z,12.95
2022-11-24T03:42:50.228Z,15.52
2022-11-24T03:48:08.409Z,14.60
2022-11-24T03:53:28.084Z,18.02
2022-11-24T03:58:45.536Z,19.27
2022-11-24T04:04:02.959Z,17.13
2022-11-24T04:09:20.401Z,18.08
2022-11-24T04:14:38.024Z,16.58
2022-11-24T04:19:55.703Z,17.17
2022-11-24T04:25:13.527Z,14.48
2022-11-24T04:30:31.025Z,9.38
2022-11-24T04:35:48.405Z,13.80
2022-11-24T04:41:06.228Z,10.20
2022-11-24T04:46:23.716Z,10.65
2022-11-24T04:51:41.766Z,11.73
2022-11-24T04:56:59.195Z,10.23
2022-11-24T05:02:16.702Z,12.60
2022-11-24T05:07:35.032Z,12.60
2022-11-24T05:12:59.705Z,9.23
2022-11-24T05:18:17.238Z,9.63
2022-11-24T05:23:34.649Z,12.32
2022-11-24T05:28:52.101Z,15.73
2022-11-24T05:34:10.261Z,11.85
2022-11-24T05:39:27.647Z,11.75
2022-11-24T05:44:45.001Z,10.57
2022-11-24T05:50:02.420Z,14.90
2022-11-24T05:55:19.939Z,9.65
2022-11-24T06:00:37.405Z,11.35
2022-11-24T06:05:54.845Z,10.70
2022-11-24T06:11:18.105Z,12.18
2022-11-24T06:16:35.514Z,13.77
2022-11-24T06:21:53.001Z,11.38
2022-11-24T06:27:10.462Z,15.10
2022-11-24T06:32:28.015Z,12.48
2022-11-24T06:37:46.094Z,12.52
2022-11-24T06:43:03.470Z,19.83
2022-11-24T06:48:20.972Z,18.23
2022-11-24T06:53:39.371Z,15.27
2022-11-24T06:58:56.781Z,12.32
2022-11-24T07:04:15.138Z,13.35
2022-11-24T07:09:32.612Z,19.95
2022-11-24T07:14:50.074Z,14.95
2022-11-24T07:20:09.138Z,16.42
2022-11-24T07:25:26.742Z,12.63
2022-11-24T07:30:44.162Z,14.40
2022-11-24T07:36:02.622Z,14.98
2022-11-24T07:41:20.939Z,13.63
2022-11-24T07:46:38.390Z,17.35
2022-11-24T07:51:55.934Z,14.00
2022-11-24T07:57:13.408Z,13.07
2022-11-24T08:02:30.888Z,14.73
2022-11-24T08:07:48.460Z,13.05
2022-11-24T08:13:06.008Z,13.48
2022-11-24T08:18:24.732Z,17.27
2022-11-24T08:23:42.787Z,15.30
2022-11-24T08:29:00.399Z,10.02
2022-11-24T08:34:18.057Z,30.17
2022-11-24T08:39:35.473Z,14.02
2022-11-24T08:44:58.854Z,10.13
2022-11-24T08:50:17.040Z,10.77
2022-11-24T08:55:34.494Z,9.73
2022-11-24T09:00:51.956Z,12.57
2022-11-24T09:06:10.234Z,9.85
2022-11-24T09:11:28.459Z,10.75
2022-11-24T09:16:45.951Z,11.15
2022-11-24T09:22:03.967Z,7.70
2022-11-24T09:27:21.377Z,18.73
2022-11-24T09:32:38.763Z,17.13
2022-11-24T09:37:56.130Z,10.57
2022-11-24T09:43:21.902Z,9.05
2022-11-24T09:48:47.736Z,17.33
2022-11-24T09:54:16.865Z,9.73
2022-11-24T09:59:34.497Z,11.05
2022-11-24T10:04:54.652Z,10.40
2022-11-24T10:10:22.922Z,10.57
2022-11-24T10:15:48.528Z,12.35
2022-11-24T10:21:26.918Z,8.18
2022-11-24T10:27:10.554Z,11.13
2022-11-24T10:32:35.642Z,11.57
2022-11-24T10:37:53.109Z,9.88
2022-11-24T10:43:12.354Z,12.50
2022-11-24T10:48:44.216Z,11.75
2022-11-24T10:54:28.329Z,7.97
2022-11-24T10:59:45.749Z,6.93
2022-11-24T11:05:24.680Z,9.05
2022-11-24T11:10:43.962Z,8.00
2022-11-24T11:16:01.892Z,7.65
2022-11-24T11:21:31.890Z,8.45
2022-11-24T11:27:03.915Z,11.98
2022-11-24T11:38:06.927Z,6.88
2022-11-24T11:43:37.834Z,7.50
2022-11-24T11:48:55.310Z,9.88
2022-11-24T11:54:35.061Z,13.90
2022-11-24T12:00:16.003Z,11.20
2022-11-24T12:06:00.897Z,9.27
2022-11-24T12:11:27.748Z,9.00
2022-11-24T12:17:32.736Z,11.05
2022-11-24T12:23:26.853Z,6.65
2022-11-24T12:28:44.238Z,7.57
2022-11-24T12:34:20.117Z,6.85
2022-11-24T12:39:53.252Z,9.02
2022-11-24T12:45:13.326Z,7.35
2022-11-24T12:50:34.338Z,8.77
2022-11-24T13:01:36.458Z,7.15
2022-11-24T13:07:20.238Z,16.02
2022-11-24T13:12:57.644Z,13.57
2022-11-24T13:18:53.683Z,7.45
2022-11-24T13:24:17.625Z,15.40
2022-11-24T13:29:37.846Z,10.93
2022-11-24T13:35:02.493Z,16.15
2022-11-24T13:40:22.914Z,11.68
2022-11-24T13:45:41.023Z,9.02
2022-11-24T13:50:58.693Z,21.13
2022-11-24T13:56:16.066Z,12.98
2022-11-24T14:01:36.868Z,9.38
2022-11-24T14:06:59.001Z,22.67
2022-11-24T14:12:22.844Z,11.52
2022-11-24T14:17:40.324Z,14.23
2022-11-24T14:22:57.858Z,10.93
2022-11-24T14:28:27.738Z,10.32
2022-11-24T14:33:45.253Z,9.10
2022-11-24T14:39:02.808Z,8.27
2022-11-24T14:44:42.506Z,11.75
2022-11-24T14:50:11.657Z,20.10
2022-11-24T14:55:35.463Z,14.32
2022-11-24T15:01:11.615Z,12.43
2022-11-24T15:06:29.190Z,10.57
2022-11-24T15:11:46.760Z,10.88
2022-11-24T15:17:05.031Z,15.55
2022-11-24T15:22:43.812Z,19.95
2022-11-24T15:28:01.571Z,23.25
2022-11-24T15:33:20.768Z,20.25
2022-11-24T15:38:38.190Z,26.02
2022-11-24T15:43:59.389Z,13.63
2022-11-24T15:49:16.825Z,20.13
2022-11-24T15:54:34.495Z,10.82
2022-11-24T15:59:53.409Z,11.75
2022-11-24T16:05:12.620Z,14.27
2022-11-24T16:10:36.192Z,12.38
2022-11-24T16:15:53.873Z,12.75
2022-11-24T16:21:11.768Z,17.42
2022-11-24T16:26:29.154Z,22.83
2022-11-24T16:31:47.438Z,30.02
2022-11-24T16:37:04.949Z,23.83
2022-11-24T16:42:22.403Z,44.65
2022-11-24T16:47:41.294Z,37.47
2022-11-24T16:52:58.711Z,32.80
2022-11-24T16:58:16.159Z,27.88
2022-11-24T17:03:34.494Z,22.85
2022-11-24T17:08:51.997Z,22.70
2022-11-24T17:14:10.752Z,21.45
2022-11-24T17:19:28.561Z,22.40
2022-11-24T17:24:46.013Z,27.02
2022-11-24T17:30:03.600Z,41.03
2022-11-24T17:35:21.029Z,67.88
2022-11-24T17:40:38.503Z,44.92
2022-11-24T17:45:57.977Z,61.05
2022-11-24T17:51:18.213Z,118.38
2022-11-24T17:56:35.749Z,214.63
2022-11-24T18:01:53.307Z,166.82
2022-11-24T18:07:11.008Z,114.97
2022-11-24T18:12:28.493Z,174.15
2022-11-24T18:17:46.003Z,102.05
2022-11-24T18:23:05.886Z,38.03
2022-11-24T18:28:23.731Z,57.80
2022-11-24T18:33:43.183Z,37.85
2022-11-24T18:39:01.563Z,58.92
2022-11-24T18:44:19.084Z,19.23
2022-11-24T18:49:36.553Z,36.50
2022-11-24T18:54:54.036Z,87.65
2022-11-24T19:00:12.171Z,86.32
2022-11-24T19:05:29.608Z,127.75
2022-11-24T19:10:49.528Z,98.05
2022-11-24T19:16:12.506Z,57.13
2022-11-24T19:21:38.158Z,42.15
2022-11-24T19:26:55.645Z,64.18
2022-11-24T19:32:13.116Z,26.77
2022-11-24T19:37:30.663Z,47.55
2022-11-24T19:42:48.109Z,42.92
2022-11-24T19:48:05.734Z,27.40
2022-11-24T19:53:23.221Z,22.42
2022-11-24T19:58:41.664Z,21.42
2022-11-24T20:04:00.276Z,25.25
2022-11-24T20:09:18.783Z,19.58
2022-11-24T20:14:36.571Z,27.80
2022-11-24T20:19:54.203Z,16.75
2022-11-24T20:25:11.739Z,15.60
2022-11-24T20:30:29.238Z,21.40
2022-11-24T20:35:46.668Z,15.38
2022-11-24T20:41:13.028Z,37.05
2022-11-24T20:46:32.346Z,26.30
2022-11-24T20:51:54.624Z,34.20
2022-11-24T20:57:12.054Z,22.02
2022-11-24T21:02:29.554Z,20.95
2022-11-24T21:07:47.150Z,18.75
2022-11-24T21:13:04.683Z,21.15
2022-11-24T21:18:22.899Z,24.60
2022-11-24T21:23:40.690Z,25.52
2022-11-24T21:28:58.510Z,27.67
2022-11-24T21:34:18.747Z,36.45
2022-11-24T21:39:36.700Z,22.80
2022-11-24T21:44:54.333Z,25.83
2022-11-24T21:50:11.979Z,24.60
2022-11-24T21:55:29.454Z,31.73
2022-11-24T22:00:46.931Z,31.13
2022-11-24T22:06:04.870Z,25.45
2022-11-24T22:11:24.584Z,20.02
2022-11-24T22:16:42.125Z,25.38
2022-11-24T22:21:59.605Z,24.58
2022-11-24T22:27:17.008Z,25.00
2022-11-24T22:32:34.380Z,22.55
2022-11-24T22:37:52.209Z,27.70
2022-11-24T22:43:09.628Z,19.88
2022-11-24T22:48:27.609Z,20.33
2022-11-24T22:53:49.621Z,16.13
2022-11-24T22:59:07.136Z,16.02
2022-11-24T23:04:24.560Z,13.25
2022-11-24T23:09:42.156Z,14.38
2022-11-24T23:14:59.555Z,15.45
2022-11-24T23:20:17.151Z,14.02
2022-11-24T23:25:34.919Z,19.98
2022-11-24T23:30:52.420Z,20.88
2022-11-24T23:36:12.654Z,21.23
2022-11-24T23:41:30.915Z,29.30
2022-11-24T23:46:48.433Z,22.02
2022-11-24T23:52:05.866Z,20.52
2022-11-24T23:57:23.244Z,16.92
